Time;durP1;ratioP1;P1;durP2;ratioP2;P2;SDS_P1;SDS_P2;PMS_P1;PMS_P2;Temp;Humidity;BMP_temperature;BMP_pressure;BME280_temperature;BME280_humidity;BME280_pressure;Samples;Min_cycle;Max_cycle;Signal;HPM_P1;HPM_P2
2022/03/27 00:00:38;;;;;;;;;41.75;34.00;;;;;13.27;41.58;102119.28;5007985;28;45126;-83
2022/03/27 00:03:06;;;;;;;;;38.25;34.50;;;;;13.47;41.33;102149.25;5008551;28;45411;-84
2022/03/27 00:05:32;;;;;;;;;36.00;32.50;;;;;13.56;41.52;102162.88;5008380;28;45638;-82
2022/03/27 00:07:57;;;;;;;;;37.75;34.25;;;;;13.40;41.27;102140.16;5009058;28;45270;-83
2022/03/27 00:10:22;;;;;;;;;42.00;35.50;;;;;13.24;41.74;102108.56;5008046;28;45070;-83
2022/03/27 00:12:48;;;;;;;;;40.50;34.50;;;;;13.41;41.80;102141.94;5008526;28;45783;-83
2022/03/27 00:15:13;;;;;;;;;37.50;32.25;;;;;13.29;41.46;102120.25;5008229;28;45476;-83
2022/03/27 00:17:39;;;;;;;;;36.50;33.75;;;;;13.43;42.07;102161.41;5008674;28;45320;-82
2022/03/27 00:20:08;;;;;;;;;37.75;32.00;;;;;12.98;42.36;102077.41;5008196;28;45141;-82
2022/03/27 00:22:34;;;;;;;;;39.75;34.00;;;;;13.42;41.86;102159.59;5008114;28;45526;-83
2022/03/27 00:24:59;;;;;;;;;43.00;36.75;;;;;13.46;41.93;102168.56;5006858;28;45139;-82
2022/03/27 00:27:24;;;;;;;;;33.50;31.25;;;;;13.09;42.09;102097.28;5008382;28;45086;-83
2022/03/27 00:29:50;;;;;;;;;41.75;34.00;;;;;13.05;42.73;102098.91;5008364;28;45156;-81
2022/03/27 00:32:15;;;;;;;;;44.00;33.75;;;;;13.02;42.67;102103.13;5008285;28;45675;-83
2022/03/27 00:34:41;;;;;;;;;35.50;31.75;;;;;13.13;43.22;102128.28;5007549;28;45157;-83
2022/03/27 00:37:06;;;;;;;;;36.00;33.67;;;;;13.05;43.17;102125.28;5008261;28;45022;-83
2022/03/27 00:39:31;;;;;;;;;35.00;32.00;;;;;12.95;43.37;102111.56;5007789;28;45152;-84
2022/03/27 00:41:57;;;;;;;;;39.75;33.50;;;;;12.95;42.88;102117.75;5008561;28;45635;-83
2022/03/27 00:44:22;;;;;;;;;41.50;33.50;;;;;12.94;43.64;102123.88;5008219;28;44857;-82
2022/03/27 00:46:47;;;;;;;;;37.75;33.00;;;;;12.90;43.79;102108.72;5008059;28;45129;-82
2022/03/27 00:49:13;;;;;;;;;44.00;35.67;;;;;12.93;43.48;102123.81;5007842;28;45255;-82
2022/03/27 00:51:38;;;;;;;;;41.75;33.75;;;;;12.97;44.04;102131.94;5007835;28;45403;-83
2022/03/27 00:54:04;;;;;;;;;41.00;35.25;;;;;13.07;44.35;102157.03;5008570;28;45201;-83
2022/03/27 00:56:30;;;;;;;;;45.75;37.75;;;;;12.94;43.45;102139.69;5005459;28;45187;-84
2022/03/27 00:58:55;;;;;;;;;42.75;35.00;;;;;12.81;43.71;102111.84;4990048;28;45822;-83
2022/03/27 01:01:24;;;;;;;;;45.00;36.00;;;;;12.97;43.35;102138.97;5007242;28;45398;-83
2022/03/27 01:03:54;;;;;;;;;47.75;37.75;;;;;13.06;43.35;102152.59;5000074;28;45401;-84
2022/03/27 01:06:30;;;;;;;;;41.75;34.75;;;;;13.06;43.57;102147.31;5006342;28;45200;-83
2022/03/27 01:11:40;;;;;;;;;40.75;32.25;;;;;12.97;44.34;102133.69;5007601;28;45592;-83
2022/03/27 01:14:05;;;;;;;;;49.00;39.00;;;;;13.00;43.57;102154.91;5011734;28;45070;-83
2022/03/27 01:16:37;;;;;;;;;38.00;33.75;;;;;12.99;44.20;102145.19;5011291;28;45003;-83
2022/03/27 01:19:33;;;;;;;;;42.50;36.00;;;;;12.28;44.12;102020.53;5011284;28;45128;-84
2022/03/27 01:22:08;;;;;;;;;38.75;32.25;;;;;11.53;44.53;101916.72;4981231;28;47340;-83
2022/03/27 01:24:34;;;;;;;;;39.00;33.75;;;;;12.79;44.93;102125.78;5010561;28;45147;-84
2022/03/27 01:26:59;;;;;;;;;36.25;33.00;;;;;12.87;44.17;102150.81;5011689;28;45082;-83
2022/03/27 01:29:25;;;;;;;;;42.25;35.25;;;;;12.67;44.24;102105.00;5011075;28;45487;-83
2022/03/27 01:31:51;;;;;;;;;46.75;38.50;;;;;12.84;44.46;102143.63;5011382;28;46155;-83
2022/03/27 01:34:18;;;;;;;;;41.00;34.00;;;;;12.77;44.18;102124.81;5010763;28;45144;-83
2022/03/27 01:36:43;;;;;;;;;47.25;38.75;;;;;12.84;44.23;102135.72;5011547;28;45288;-84
2022/03/27 01:39:11;;;;;;;;;44.75;34.75;;;;;12.84;44.42;102140.09;5011829;28;45113;-83
2022/03/27 01:41:38;;;;;;;;;44.00;37.50;;;;;12.75;44.66;102126.47;5010086;28;45765;-83
2022/03/27 01:44:06;;;;;;;;;43.50;37.75;;;;;12.75;44.88;102116.81;5011247;28;45310;-83
2022/03/27 01:46:33;;;;;;;;;45.75;37.75;;;;;12.78;44.62;102139.81;5010628;28;45022;-83
2022/03/27 01:49:00;;;;;;;;;42.00;35.00;;;;;12.61;44.94;102089.81;5010946;28;45310;-83
2022/03/27 01:51:27;;;;;;;;;45.00;37.00;;;;;12.50;44.76;102075.16;5010361;28;45162;-83
2022/03/27 01:53:53;;;;;;;;;47.00;35.25;;;;;12.40;45.03;102065.00;5011757;28;45431;-83
2022/03/27 01:56:19;;;;;;;;;41.75;34.25;;;;;12.40;44.57;102067.66;5010118;28;45047;-83
2022/03/27 01:58:44;;;;;;;;;48.25;37.00;;;;;12.60;45.36;102102.88;5010804;28;45168;-84
2022/03/27 02:01:09;;;;;;;;;46.33;38.67;;;;;12.51;44.93;102079.66;5010101;28;45884;-83
2022/03/27 02:03:36;;;;;;;;;51.00;41.25;;;;;12.75;45.54;102126.47;5010528;28;44991;-83
2022/03/27 02:06:03;;;;;;;;;44.50;38.50;;;;;12.65;45.63;102114.56;5011397;28;45249;-83
2022/03/27 02:08:29;;;;;;;;;49.00;39.50;;;;;12.41;45.47;102069.44;5010712;28;45056;-82
2022/03/27 02:10:55;;;;;;;;;46.25;37.75;;;;;12.34;46.33;102070.91;4992165;28;47064;-84
2022/03/27 02:13:22;;;;;;;;;48.25;37.25;;;;;12.40;45.77;102076.47;5010505;28;45169;-83
2022/03/27 02:15:48;;;;;;;;;52.25;39.75;;;;;12.26;45.79;102063.44;5010140;28;45090;-83
2022/03/27 02:18:15;;;;;;;;;47.25;37.75;;;;;12.63;45.80;102122.41;5010285;28;45217;-82
2022/03/27 02:20:43;;;;;;;;;49.75;39.50;;;;;12.33;45.63;102069.09;5010625;28;45359;-83
2022/03/27 02:23:09;;;;;;;;;44.75;37.75;;;;;12.27;45.90;102062.63;5010670;28;45618;-83
2022/03/27 02:25:34;;;;;;;;;46.75;38.25;;;;;12.43;45.93;102093.28;5009218;28;45185;-83
2022/03/27 02:27:59;;;;;;;;;49.50;38.25;;;;;12.60;46.60;102131.91;5010776;28;45358;-83
2022/03/27 02:30:25;;;;;;;;;49.50;38.75;;;;;12.46;46.92;102109.22;5010273;28;45246;-81
2022/03/27 02:32:50;;;;;;;;;43.75;36.00;;;;;12.12;46.27;102061.06;5010372;28;45105;-82
2022/03/27 02:35:16;;;;;;;;;52.75;41.50;;;;;12.30;46.45;102100.56;5010617;28;45140;-83
2022/03/27 02:37:41;;;;;;;;;48.67;37.67;;;;;12.15;46.49;102073.47;5010781;28;45121;-83
2022/03/27 02:40:07;;;;;;;;;43.50;36.00;;;;;12.25;46.57;102083.63;5009894;28;45743;-83
2022/03/27 02:42:32;;;;;;;;;48.00;38.50;;;;;12.24;46.66;102089.72;5010219;28;45546;-82
2022/03/27 02:44:58;;;;;;;;;47.75;37.25;;;;;12.34;46.57;102099.00;5010425;28;45157;-83
2022/03/27 02:47:24;;;;;;;;;52.50;42.50;;;;;12.21;46.84;102080.75;4991605;28;45139;-84
2022/03/27 02:49:49;;;;;;;;;47.75;38.50;;;;;12.38;46.86;102109.78;5010268;28;45674;-83
2022/03/27 02:52:14;;;;;;;;;45.75;37.00;;;;;12.26;46.88;102088.06;5010118;28;45170;-83
2022/03/27 02:54:40;;;;;;;;;43.00;37.50;;;;;12.21;46.84;102078.13;5007894;28;45479;-84
2022/03/27 02:57:05;;;;;;;;;45.75;37.00;;;;;11.76;46.95;101996.84;5010514;28;45106;-83
2022/03/27 02:59:31;;;;;;;;;51.00;39.75;;;;;12.16;47.57;102077.91;4991354;28;46228;-84
2022/03/27 03:01:56;;;;;;;;;47.75;38.75;;;;;12.19;47.59;102078.06;5009903;28;45045;-83
2022/03/27 03:04:22;;;;;;;;;46.75;37.00;;;;;12.03;47.29;102050.06;5008469;28;45177;-81
2022/03/27 03:06:47;;;;;;;;;53.00;42.25;;;;;11.98;47.26;102048.03;5010112;28;44978;-83
2022/03/27 03:09:13;;;;;;;;;45.00;38.00;;;;;12.24;47.38;102095.00;5009178;28;45343;-83
2022/03/27 03:11:38;;;;;;;;;51.00;40.25;;;;;12.20;47.88;102098.31;5009394;28;45275;-83
2022/03/27 03:14:04;;;;;;;;;42.50;36.00;;;;;12.30;48.25;102124.28;5009655;28;45459;-84
2022/03/27 03:16:30;;;;;;;;;49.75;40.75;;;;;11.85;47.81;102052.66;5009299;28;45064;-84
2022/03/27 03:18:55;;;;;;;;;49.25;39.25;;;;;11.91;48.08;102053.78;5010045;28;45477;-83
2022/03/27 03:21:21;;;;;;;;;42.50;37.00;;;;;11.98;47.81;102077.00;5009609;28;45232;-83
2022/03/27 03:23:47;;;;;;;;;42.50;37.50;;;;;11.95;47.94;102064.56;5009757;28;45434;-83
2022/03/27 03:26:12;;;;;;;;;49.50;39.25;;;;;12.12;47.84;102094.41;5009279;28;45054;-83
2022/03/27 03:28:37;;;;;;;;;47.50;38.25;;;;;12.00;47.72;102080.59;5009469;28;45180;-83
2022/03/27 03:31:03;;;;;;;;;50.00;38.25;;;;;11.92;48.20;102058.22;5009669;28;45206;-84
2022/03/27 03:33:28;;;;;;;;;49.00;39.25;;;;;12.22;48.10;102124.78;5009218;28;45161;-83
2022/03/27 03:35:54;;;;;;;;;52.50;40.25;;;;;12.12;48.36;102097.06;5010053;28;45267;-82
2022/03/27 03:38:19;;;;;;;;;47.25;37.00;;;;;11.85;48.28;102060.56;5008993;28;45410;-83
2022/03/27 03:40:45;;;;;;;;;46.50;39.00;;;;;11.96;48.36;102076.00;5008458;28;45348;-83
2022/03/27 03:43:11;;;;;;;;;41.50;36.00;;;;;11.93;48.48;102089.03;5009779;28;45038;-83
2022/03/27 03:45:36;;;;;;;;;50.50;39.25;;;;;11.78;48.61;102070.69;5009303;28;45077;-83
2022/03/27 03:48:04;;;;;;;;;50.50;39.25;;;;;12.12;48.59;102128.69;5008827;28;45908;-83
2022/03/27 03:50:30;;;;;;;;;44.75;38.00;;;;;11.96;48.98;102113.78;5008780;28;45633;-83
2022/03/27 03:52:56;;;;;;;;;44.00;35.25;;;;;11.80;49.02;102088.38;5009895;28;45253;-84
2022/03/27 03:55:21;;;;;;;;;47.25;36.25;;;;;11.85;49.21;102096.53;5008300;28;44959;-83
2022/03/27 03:57:46;;;;;;;;;46.50;38.25;;;;;11.73;49.22;102086.25;5009721;28;45398;-84
2022/03/27 04:00:12;;;;;;;;;46.50;38.50;;;;;11.86;49.44;102117.69;5008792;28;45215;-83
2022/03/27 04:02:38;;;;;;;;;49.50;39.00;;;;;11.49;50.03;102064.84;5008895;28;45323;-84
2022/03/27 04:05:03;;;;;;;;;38.50;33.25;;;;;11.70;49.60;102101.91;5009439;28;45007;-83
2022/03/27 04:07:29;;;;;;;;;51.50;42.00;;;;;11.43;50.05;102054.00;5008613;28;45847;-84
2022/03/27 04:09:54;;;;;;;;;47.33;39.00;;;;;11.77;50.18;102117.22;5008189;28;45277;-83
2022/03/27 04:12:19;;;;;;;;;48.75;37.00;;;;;11.65;50.42;102103.38;5008963;28;45109;-83
2022/03/27 04:14:45;;;;;;;;;37.75;34.50;;;;;11.62;50.46;102097.94;5008752;28;44928;-84
2022/03/27 04:17:11;;;;;;;;;50.00;39.75;;;;;11.51;50.74;102088.59;5008493;28;45591;-83
2022/03/27 04:19:37;;;;;;;;;43.75;36.25;;;;;11.60;50.64;102115.41;5008425;28;45148;-84
2022/03/27 04:22:03;;;;;;;;;44.25;37.25;;;;;11.65;50.96;102123.56;5009531;28;45291;-83
2022/03/27 04:24:28;;;;;;;;;46.25;38.25;;;;;11.24;51.23;102067.00;5008306;28;45101;-84
2022/03/27 04:26:54;;;;;;;;;46.00;36.33;;;;;11.52;51.19;102127.25;5009466;28;46267;-84
2022/03/27 04:29:19;;;;;;;;;45.00;37.50;;;;;11.16;51.28;102058.69;5006875;28;45130;-83
2022/03/27 04:31:44;;;;;;;;;42.25;35.50;;;;;11.45;51.34;102118.16;5008407;28;45027;-84
2022/03/27 04:34:10;;;;;;;;;47.50;35.50;;;;;11.48;51.47;102134.13;5009145;28;45334;-84
2022/03/27 04:36:35;;;;;;;;;40.50;36.75;;;;;11.18;51.65;102086.00;5008317;28;45514;-83
2022/03/27 04:39:02;;;;;;;;;52.75;40.50;;;;;11.37;51.67;102122.09;5008731;28;45159;-83
2022/03/27 04:41:28;;;;;;;;;48.75;39.00;;;;;11.11;51.88;102087.38;5008130;28;45095;-84
2022/03/27 04:43:53;;;;;;;;;46.75;36.75;;;;;10.89;51.81;102055.50;5008997;28;45261;-84
2022/03/27 04:46:18;;;;;;;;;39.00;35.25;;;;;10.86;52.16;102055.31;5007706;28;45653;-84
2022/03/27 04:48:45;;;;;;;;;42.25;35.75;;;;;10.98;52.57;102089.25;5007933;28;44999;-83
2022/03/27 04:51:11;;;;;;;;;40.25;33.25;;;;;11.29;52.20;102144.47;5008754;28;45343;-84
2022/03/27 04:53:37;;;;;;;;;38.50;35.50;;;;;11.03;52.54;102108.84;5008239;28;45011;-84
2022/03/27 04:56:02;;;;;;;;;48.75;38.00;;;;;11.09;52.27;102118.00;5007887;28;45313;-84
2022/03/27 04:58:28;;;;;;;;;43.25;36.00;;;;;11.07;52.43;102119.59;5008605;28;45268;-84
2022/03/27 05:00:53;;;;;;;;;37.00;32.67;;;;;11.21;52.60;102141.41;5008163;28;45211;-84
2022/03/27 05:03:18;;;;;;;;;39.67;36.00;;;;;10.88;52.61;102095.75;5008411;28;45349;-83
2022/03/27 05:05:44;;;;;;;;;41.33;35.00;;;;;10.84;52.59;102078.91;5008184;28;46101;-85
2022/03/27 05:08:09;;;;;;;;;39.75;35.50;;;;;11.12;52.23;102133.03;5008143;28;45120;-84
2022/03/27 05:10:35;;;;;;;;;39.25;33.75;;;;;11.19;52.25;102147.44;5007674;28;45041;-84
2022/03/27 05:13:01;;;;;;;;;44.50;36.25;;;;;11.26;52.43;102152.19;5008744;28;45097;-85
2022/03/27 05:15:27;;;;;;;;;37.50;34.25;;;;;10.88;52.74;102082.59;5007068;28;45682;-84
2022/03/27 05:17:56;;;;;;;;;41.75;36.75;;;;;11.19;52.69;102145.72;5008496;28;45192;-84
2022/03/27 05:20:23;;;;;;;;;49.25;36.75;;;;;11.27;52.22;102160.16;5007548;28;45505;-84
2022/03/27 05:22:48;;;;;;;;;41.00;34.50;;;;;11.12;52.18;102133.03;5008191;28;45009;-84
2022/03/27 05:25:15;;;;;;;;;38.75;35.25;;;;;11.03;52.38;102111.47;5017194;28;45447;-84
2022/03/27 05:27:48;;;;;;;;;38.00;33.25;;;;;11.33;52.73;102170.16;5028136;28;45568;-84
2022/03/27 05:30:21;;;;;;;;;44.00;33.50;;;;;11.31;52.59;102167.41;5027283;28;45033;-84
2022/03/27 05:32:48;;;;;;;;;40.25;34.50;;;;;10.94;52.33;102103.09;5028125;28;45129;-83
2022/03/27 05:35:14;;;;;;;;;41.50;33.75;;;;;11.04;52.32;102123.81;5027436;28;45972;-84
2022/03/27 05:37:41;;;;;;;;;41.25;33.75;;;;;10.98;52.71;102102.41;5027653;28;45134;-85
2022/03/27 05:40:09;;;;;;;;;35.00;32.75;;;;;10.93;52.60;102104.78;5016482;28;45327;-84
2022/03/27 05:42:35;;;;;;;;;40.50;35.75;;;;;11.09;52.47;102132.88;5007996;28;45473;-84
2022/03/27 05:45:01;;;;;;;;;39.50;35.00;;;;;11.03;52.73;102114.09;5007253;28;45538;-84
2022/03/27 05:47:27;;;;;;;;;37.25;33.25;;;;;11.16;52.59;102140.25;5007664;28;45113;-84
2022/03/27 05:49:53;;;;;;;;;34.25;32.25;;;;;11.20;52.46;102142.25;5008080;28;45621;-83
2022/03/27 05:52:18;;;;;;;;;41.25;34.50;;;;;11.36;52.37;102178.19;5007902;28;45514;-84
2022/03/27 05:54:43;;;;;;;;;36.75;32.00;;;;;11.01;52.51;102107.84;5006914;28;46318;-84
2022/03/27 05:57:09;;;;;;;;;42.75;35.00;;;;;10.91;52.50;102087.13;5007854;28;45243;-84
2022/03/27 05:59:34;;;;;;;;;43.00;36.00;;;;;11.27;52.66;102154.00;5007634;28;45177;-84
2022/03/27 06:02:00;;;;;;;;;42.25;35.25;;;;;11.37;52.83;102175.63;5011079;28;45035;-81
2022/03/27 06:04:26;;;;;;;;;38.50;34.50;;;;;11.32;52.44;102166.59;5010988;28;45257;-85
2022/03/27 06:06:51;;;;;;;;;42.75;36.50;;;;;11.20;52.74;102141.34;5011014;28;45365;-85
2022/03/27 06:09:17;;;;;;;;;37.33;32.33;;;;;11.05;53.07;102123.91;5010358;28;45237;-85
2022/03/27 06:11:42;;;;;;;;;40.00;34.33;;;;;11.18;52.74;102143.91;5010492;28;44898;-85
2022/03/27 06:14:07;;;;;;;;;41.75;34.25;;;;;11.24;52.46;102152.13;5010537;28;45330;-83
2022/03/27 06:16:33;;;;;;;;;42.00;36.25;;;;;11.12;52.52;102127.75;5010312;28;45121;-84
2022/03/27 06:18:58;;;;;;;;;48.25;37.50;;;;;11.28;52.77;102154.09;5011313;28;45026;-84
2022/03/27 06:21:23;;;;;;;;;41.00;36.50;;;;;11.37;52.69;102172.09;5010264;28;45419;-84
2022/03/27 06:23:49;;;;;;;;;40.00;34.00;;;;;11.17;52.76;102125.38;5010738;28;45331;-84
2022/03/27 06:26:14;;;;;;;;;35.25;31.75;;;;;11.34;52.51;102156.16;5010522;28;44903;-83
2022/03/27 06:28:39;;;;;;;;;38.00;34.00;;;;;11.32;52.46;102144.63;5010730;28;45275;-83
2022/03/27 06:31:05;;;;;;;;;44.00;35.67;;;;;11.40;52.73;102153.84;5010113;28;45240;-85
2022/03/27 06:33:30;;;;;;;;;36.00;33.33;;;;;11.38;52.74;102144.97;5010413;28;45770;-84
2022/03/27 06:35:55;;;;;;;;;38.00;33.00;;;;;11.40;52.98;102147.69;5010452;28;47749;-84
2022/03/27 06:38:21;;;;;;;;;42.33;34.33;;;;;11.52;52.45;102156.22;4992192;28;45248;-84
2022/03/27 06:40:46;;;;;;;;;37.75;33.25;;;;;11.45;52.46;102149.72;5010219;28;45231;-84
2022/03/27 06:43:11;;;;;;;;;40.00;34.50;;;;;11.56;52.71;102161.72;5010405;28;45761;-85
2022/03/27 06:45:39;;;;;;;;;39.00;33.00;;;;;11.43;52.44;102126.75;4991850;28;45395;-84
2022/03/27 06:48:04;;;;;;;;;41.00;35.00;;;;;11.46;52.23;102134.84;5010452;28;45147;-83
2022/03/27 06:50:29;;;;;;;;;39.25;34.75;;;;;11.43;52.32;102124.13;5010117;28;45313;-84
2022/03/27 06:52:55;;;;;;;;;36.50;32.50;;;;;11.73;52.28;102178.44;5010534;28;45779;-84
2022/03/27 06:55:22;;;;;;;;;42.75;38.00;;;;;11.56;52.25;102132.78;5009487;28;45217;-85
2022/03/27 06:57:48;;;;;;;;;40.25;35.50;;;;;11.61;51.81;102139.19;5010477;28;45031;-85
2022/03/27 07:03:09;;;;;;;;;40.25;34.50;;;;;11.79;51.72;102152.41;5007092;28;45548;-84
2022/03/27 07:05:44;;;;;;;;;34.75;29.75;;;;;12.00;51.98;102186.91;5010309;28;45185;-84
2022/03/27 07:08:15;;;;;;;;;38.50;33.00;;;;;12.04;51.94;102193.25;4991463;28;45089;-84
2022/03/27 07:10:42;;;;;;;;;43.75;36.25;;;;;11.84;51.83;102150.97;5009300;28;45330;-84
2022/03/27 07:13:09;;;;;;;;;36.75;33.50;;;;;12.04;51.77;102180.97;5009533;28;45677;-82
2022/03/27 07:15:36;;;;;;;;;47.50;37.25;;;;;12.08;51.70;102176.78;5009275;28;45338;-84
2022/03/27 07:18:02;;;;;;;;;29.25;29.00;;;;;11.97;51.73;102160.41;5010256;28;45154;-83
2022/03/27 07:20:29;;;;;;;;;36.50;33.00;;;;;12.24;51.95;102192.53;5009864;28;45029;-84
2022/03/27 07:22:57;;;;;;;;;42.25;35.00;;;;;11.92;51.48;102122.41;5009509;28;45777;-84
2022/03/27 07:25:25;;;;;;;;;41.25;34.50;;;;;12.24;51.31;102184.63;5009318;28;45198;-84
2022/03/27 07:27:51;;;;;;;;;42.50;36.00;;;;;11.94;51.40;102122.47;5009845;28;45113;-83
2022/03/27 07:30:16;;;;;;;;;30.75;28.00;;;;;12.10;51.27;102140.84;5009099;28;45231;-82
2022/03/27 07:32:42;;;;;;;;;44.75;37.75;;;;;12.00;51.33;102128.03;5009363;28;45520;-84
2022/03/27 07:35:10;;;;;;;;;42.00;33.75;;;;;12.20;50.61;102150.13;5009899;28;44975;-83
2022/03/27 07:37:36;;;;;;;;;36.00;32.75;;;;;12.09;51.23;102123.22;5009100;28;45117;-83
2022/03/27 07:40:04;;;;;;;;;44.25;34.25;;;;;12.55;50.81;102199.34;5009509;28;45125;-85
2022/03/27 07:42:32;;;;;;;;;36.00;33.50;;;;;12.42;50.79;102176.75;5009306;28;45472;-85
2022/03/27 07:44:58;;;;;;;;;37.00;34.25;;;;;12.62;50.64;102196.22;4991452;28;45024;-84
2022/03/27 07:47:24;;;;;;;;;40.50;35.50;;;;;12.37;50.33;102152.78;5009469;28;45280;-84
2022/03/27 07:49:49;;;;;;;;;43.25;35.25;;;;;12.59;50.68;102191.66;4991368;28;45376;-83
2022/03/27 07:52:14;;;;;;;;;43.00;34.75;;;;;12.40;50.37;102145.00;5009014;28;45463;-83
2022/03/27 07:54:41;;;;;;;;;38.67;35.00;;;;;12.48;50.43;102149.78;5009026;28;45152;-85
2022/03/27 07:57:07;;;;;;;;;35.75;33.50;;;;;12.79;50.62;102200.56;5009047;28;45366;-84
2022/03/27 07:59:33;;;;;;;;;36.00;32.75;;;;;12.67;50.39;102170.97;5008617;28;45046;-85
2022/03/27 08:01:58;;;;;;;;;35.00;32.50;;;;;12.47;50.15;102122.50;5009145;28;45799;-84
2022/03/27 08:04:23;;;;;;;;;37.33;35.00;;;;;12.57;49.70;102142.31;5009099;28;45111;-82
2022/03/27 08:06:51;;;;;;;;;36.67;33.33;;;;;12.88;49.76;102193.09;5008969;28;45154;-85
2022/03/27 08:09:16;;;;;;;;;36.25;32.75;;;;;12.74;49.71;102159.84;5008748;28;45459;-84
2022/03/27 08:11:42;;;;;;;;;34.75;32.50;;;;;12.76;49.63;102146.72;4990897;28;46093;-84
2022/03/27 08:14:11;;;;;;;;;35.50;30.75;;;;;12.88;49.88;102182.53;5008254;28;45107;-83
2022/03/27 08:16:37;;;;;;;;;37.25;34.25;;;;;13.06;49.49;102198.38;5008325;28;45142;-83
2022/03/27 08:19:03;;;;;;;;;39.00;32.00;;;;;13.04;49.66;102186.81;5009304;28;45006;-83
2022/03/27 08:21:28;;;;;;;;;37.25;33.00;;;;;12.89;49.50;102155.31;5007785;28;46065;-84
2022/03/27 08:23:54;;;;;;;;;39.75;34.75;;;;;13.03;49.37;102163.00;5008216;28;45305;-84
2022/03/27 08:29:04;;;;;;;;;41.25;34.50;;;;;13.16;48.80;102165.38;5008746;28;45147;-85
2022/03/27 08:31:33;;;;;;;;;36.25;30.75;;;;;13.11;48.52;102157.25;5008251;28;45555;-84
2022/03/27 08:33:59;;;;;;;;;36.50;33.75;;;;;13.13;48.60;102149.38;4990750;28;45510;-85
2022/03/27 08:36:26;;;;;;;;;38.00;32.75;;;;;13.39;48.61;102192.88;5008563;28;45197;-84
2022/03/27 08:38:52;;;;;;;;;37.75;32.25;;;;;13.51;48.91;102209.31;5008157;28;45038;-84
2022/03/27 08:41:18;;;;;;;;;38.25;33.50;;;;;13.57;49.17;102200.75;5006581;28;45523;-84
2022/03/27 08:43:44;;;;;;;;;33.50;30.50;;;;;13.62;48.78;102196.56;5008218;28;45552;-85
2022/03/27 08:46:11;;;;;;;;;33.50;28.75;;;;;13.64;48.73;102194.91;5008500;28;45255;-85
2022/03/27 08:48:37;;;;;;;;;35.75;31.25;;;;;13.35;48.21;102125.84;5006055;28;45308;-84
2022/03/27 08:51:27;;;;;;;;;32.00;29.00;;;;;13.40;48.10;102129.59;5008480;28;46003;-83
2022/03/27 08:54:06;;;;;;;;;36.25;32.25;;;;;13.80;48.02;102200.06;5008456;28;45229;-85
2022/03/27 08:56:34;;;;;;;;;37.75;32.00;;;;;13.62;47.90;102162.22;5007807;28;45121;-85
2022/03/27 08:59:07;;;;;;;;;39.25;34.25;;;;;13.88;47.48;102203.91;5007996;28;45294;-82
2022/03/27 09:01:33;;;;;;;;;40.25;35.25;;;;;13.84;47.82;102186.16;5004817;28;45416;-85
2022/03/27 09:03:59;;;;;;;;;39.25;34.00;;;;;13.83;47.92;102173.75;5008563;28;45149;-84
2022/03/27 09:06:25;;;;;;;;;38.25;34.00;;;;;13.95;47.84;102189.25;5008034;28;45466;-83
2022/03/27 09:08:51;;;;;;;;;29.50;25.25;;;;;14.02;47.15;102195.72;5008443;28;45242;-83
2022/03/27 09:11:18;;;;;;;;;35.50;32.00;;;;;14.14;47.52;102217.41;5007747;28;45415;-85
2022/03/27 09:13:49;;;;;;;;;39.00;33.50;;;;;14.20;47.07;102215.03;5007579;28;45491;-85
2022/03/27 09:16:16;;;;;;;;;39.00;33.75;;;;;14.13;47.03;102190.03;5007599;28;45181;-84
2022/03/27 09:18:51;;;;;;;;;35.75;32.25;;;;;14.27;46.75;102211.78;5008005;28;45278;-84
2022/03/27 09:21:18;;;;;;;;;34.25;32.25;;;;;14.25;46.99;102200.25;5006041;28;47538;-84
2022/03/27 09:23:44;;;;;;;;;37.25;32.00;;;;;14.29;46.85;102207.50;5007838;28;45639;-83
2022/03/27 09:26:13;;;;;;;;;35.50;32.25;;;;;14.32;46.38;102197.03;5007515;28;45252;-83
2022/03/27 09:28:47;;;;;;;;;31.50;30.00;;;;;14.27;46.66;102188.00;5007529;28;45016;-84
2022/03/27 09:31:13;;;;;;;;;32.75;31.00;;;;;14.51;47.15;102209.31;5007204;28;45744;-83
2022/03/27 09:33:46;;;;;;;;;38.00;32.00;;;;;14.38;46.26;102181.44;5008712;28;45394;-85
2022/03/27 09:36:42;;;;;;;;;39.25;32.00;;;;;14.24;46.24;102144.66;5011199;28;45466;-84
2022/03/27 09:39:17;;;;;;;;;38.50;33.25;;;;;14.67;46.14;102218.78;5002491;28;45073;-84
2022/03/27 09:41:51;;;;;;;;;37.00;33.25;;;;;14.71;46.03;102213.69;5010943;28;45391;-85
2022/03/27 09:44:29;;;;;;;;;38.50;33.75;;;;;14.75;45.58;102209.44;5008836;28;45216;-84
2022/03/27 09:47:04;;;;;;;;;38.50;32.75;;;;;14.53;45.66;102167.97;5011736;28;45346;-84
2022/03/27 09:49:35;;;;;;;;;35.25;32.75;;;;;14.85;45.47;102208.06;5010703;28;45093;-83
2022/03/27 09:52:04;;;;;;;;;33.50;30.50;;;;;14.90;45.57;102218.00;5011493;28;45236;-83
2022/03/27 09:55:03;;;;;;;;;37.25;34.00;;;;;14.70;45.74;102169.56;5010014;28;45393;-82
2022/03/27 09:57:34;;;;;;;;;46.50;34.25;;;;;15.04;45.50;102213.25;4972571;28;45129;-84
2022/03/27 10:00:13;;;;;;;;;34.75;32.00;;;;;15.06;45.23;102216.88;4991319;28;45357;-85
2022/03/27 10:02:40;;;;;;;;;38.00;32.75;;;;;14.85;45.05;102158.69;4991139;28;45502;-83
2022/03/27 10:05:13;;;;;;;;;35.75;32.50;;;;;14.67;44.97;102119.13;4991118;28;45027;-84
2022/03/27 10:07:40;;;;;;;;;38.75;34.00;;;;;15.19;45.33;102203.28;4991279;28;45405;-84
2022/03/27 10:10:08;;;;;;;;;41.75;35.00;;;;;15.05;45.49;102161.22;4991049;28;44955;-83
2022/03/27 10:12:37;;;;;;;;;40.00;33.25;;;;;15.06;45.13;102149.75;4990699;28;46012;-85
2022/03/27 10:15:12;;;;;;;;;41.50;34.25;;;;;15.06;45.09;102148.00;4989537;28;45617;-84
2022/03/27 10:17:39;;;;;;;;;40.50;34.00;;;;;15.28;45.03;102170.06;4990963;28;45113;-85
2022/03/27 10:20:16;;;;;;;;;42.25;34.25;;;;;15.14;44.20;102127.13;4990601;28;45181;-85
2022/03/27 10:22:48;;;;;;;;;39.25;35.00;;;;;14.88;44.48;102075.84;4996434;28;45202;-84
2022/03/27 10:25:16;;;;;;;;;41.50;34.50;;;;;15.26;44.71;102135.53;4998497;28;45618;-84
2022/03/27 10:27:43;;;;;;;;;37.50;34.00;;;;;15.57;44.30;102172.03;4991919;28;45803;-85
2022/03/27 10:30:10;;;;;;;;;42.25;33.75;;;;;15.53;44.40;102145.38;4997468;28;45285;-85
2022/03/27 10:32:38;;;;;;;;;37.00;33.25;;;;;15.47;44.88;102116.91;4992384;28;46581;-83
2022/03/27 10:35:24;;;;;;;;;40.00;32.25;;;;;15.65;44.34;102129.94;5003166;28;45466;-84
2022/03/27 10:37:52;;;;;;;;;36.50;31.00;;;;;16.02;44.20;102179.00;5010974;28;45170;-84
2022/03/27 10:40:34;;;;;;;;;34.50;31.50;;;;;15.77;44.16;102118.91;5002889;28;45156;-83
2022/03/27 10:43:18;;;;;;;;;41.00;35.00;;;;;15.85;43.40;102118.28;5008401;28;45591;-84
2022/03/27 10:45:44;;;;;;;;;43.25;35.50;;;;;16.21;43.00;102170.81;5008852;28;45566;-84
2022/03/27 10:48:15;;;;;;;;;43.00;35.50;;;;;16.17;43.21;102145.03;4992099;28;45264;-84
2022/03/27 10:50:48;;;;;;;;;41.75;35.50;;;;;16.17;43.37;102122.06;4998946;28;45329;-83
2022/03/27 10:53:14;;;;;;;;;55.50;45.50;;;;;16.17;43.12;102110.56;5005628;28;45403;-84
2022/03/27 10:55:45;;;;;;;;;45.25;37.00;;;;;16.48;42.67;102144.31;5008760;28;45302;-83
2022/03/27 10:58:29;;;;;;;;;43.75;36.00;;;;;16.60;43.01;102147.38;5001885;28;45178;-83
2022/03/27 11:00:55;;;;;;;;;40.50;35.75;;;;;16.31;42.61;102080.09;4998941;28;45298;-84
2022/03/27 11:03:47;;;;;;;;;51.50;40.75;;;;;16.79;42.63;102142.66;4997952;28;45301;-83
2022/03/27 11:06:23;;;;;;;;;37.75;33.25;;;;;16.54;42.45;102077.25;4989846;28;45351;-84
2022/03/27 11:08:50;;;;;;;;;43.00;34.50;;;;;16.79;42.44;102116.09;4993809;28;45128;-82
2022/03/27 11:11:33;;;;;;;;;39.50;34.00;;;;;16.99;42.25;102126.50;4989169;28;45515;-83
2022/03/27 11:14:00;;;;;;;;;37.25;31.00;;;;;16.91;42.42;102111.19;4984792;28;45540;-81
2022/03/27 11:16:25;;;;;;;;;59.75;47.75;;;;;16.94;42.31;102098.88;4971616;28;45454;-80
2022/03/27 11:18:51;;;;;;;;;45.25;36.25;;;;;16.98;41.93;102089.25;4978677;28;45129;-80